sensor_id;sensor_type;location;lat;lon;timestamp;temperature;humidity
64705;DHT22;51131;52.298;13.686;2023-07-31T00:02:10;21.10;79.30
64705;DHT22;51131;52.298;13.686;2023-07-31T00:04:36;21.10;79.30
64705;DHT22;51131;52.298;13.686;2023-07-31T00:07:03;21.10;79.30
64705;DHT22;51131;52.298;13.686;2023-07-31T00:09:31;21.10;79.20
64705;DHT22;51131;52.298;13.686;2023-07-31T00:11:57;21.10;79.90
64705;DHT22;51131;52.298;13.686;2023-07-31T00:14:24;21.20;79.40
64705;DHT22;51131;52.298;13.686;2023-07-31T00:16:51;21.20;79.30
64705;DHT22;51131;52.298;13.686;2023-07-31T00:19:18;21.10;79.20
64705;DHT22;51131;52.298;13.686;2023-07-31T00:21:44;21.10;79.20
64705;DHT22;51131;52.298;13.686;2023-07-31T00:24:12;21.00;79.10
64705;DHT22;51131;52.298;13.686;2023-07-31T00:26:38;21.10;79.30
64705;DHT22;51131;52.298;13.686;2023-07-31T00:29:05;21.10;79.30
64705;DHT22;51131;52.298;13.686;2023-07-31T00:31:32;21.00;79.20
64705;DHT22;51131;52.298;13.686;2023-07-31T00:33:59;21.10;79.20
64705;DHT22;51131;52.298;13.686;2023-07-31T00:36:25;21.60;79.70
64705;DHT22;51131;52.298;13.686;2023-07-31T00:38:52;21.10;79.10
64705;DHT22;51131;52.298;13.686;2023-07-31T00:41:19;21.10;79.20
64705;DHT22;51131;52.298;13.686;2023-07-31T00:43:45;21.10;79.30
64705;DHT22;51131;52.298;13.686;2023-07-31T00:46:12;21.10;79.30
64705;DHT22;51131;52.298;13.686;2023-07-31T00:48:39;21.10;79.10
64705;DHT22;51131;52.298;13.686;2023-07-31T00:51:07;21.20;79.30
64705;DHT22;51131;52.298;13.686;2023-07-31T00:53:34;21.40;79.40
64705;DHT22;51131;52.298;13.686;2023-07-31T00:56:01;21.00;79.00
64705;DHT22;51131;52.298;13.686;2023-07-31T00:58:27;21.00;79.10
64705;DHT22;51131;52.298;13.686;2023-07-31T01:00:54;21.50;79.60
64705;DHT22;51131;52.298;13.686;2023-07-31T01:03:21;21.00;79.10
64705;DHT22;51131;52.298;13.686;2023-07-31T01:05:50;21.10;79.20
64705;DHT22;51131;52.298;13.686;2023-07-31T01:08:22;21.00;79.10
64705;DHT22;51131;52.298;13.686;2023-07-31T01:10:52;21.00;79.10
64705;DHT22;51131;52.298;13.686;2023-07-31T01:13:20;21.10;79.20
64705;DHT22;51131;52.298;13.686;2023-07-31T01:15:47;21.00;79.10
64705;DHT22;51131;52.298;13.686;2023-07-31T01:18:14;21.00;79.20
64705;DHT22;51131;52.298;13.686;2023-07-31T01:20:41;21.00;79.10
64705;DHT22;51131;52.298;13.686;2023-07-31T01:23:16;21.00;79.20
64705;DHT22;51131;52.298;13.686;2023-07-31T01:31:01;21.00;79.20
64705;DHT22;51131;52.298;13.686;2023-07-31T01:33:29;21.00;79.20
64705;DHT22;51131;52.298;13.686;2023-07-31T01:35:56;21.00;79.20
64705;DHT22;51131;52.298;13.686;2023-07-31T01:38:23;21.00;79.30
64705;DHT22;51131;52.298;13.686;2023-07-31T01:40:53;21.00;79.30
64705;DHT22;51131;52.298;13.686;2023-07-31T01:43:19;21.00;79.30
64705;DHT22;51131;52.298;13.686;2023-07-31T01:45:46;20.80;79.10
64705;DHT22;51131;52.298;13.686;2023-07-31T01:48:13;21.00;79.20
64705;DHT22;51131;52.298;13.686;2023-07-31T01:50:39;21.00;79.20
64705;DHT22;51131;52.298;13.686;2023-07-31T01:53:06;21.00;79.10
64705;DHT22;51131;52.298;13.686;2023-07-31T01:55:33;21.00;79.30
64705;DHT22;51131;52.298;13.686;2023-07-31T01:57:59;20.90;79.40
64705;DHT22;51131;52.298;13.686;2023-07-31T02:00:26;21.00;79.40
64705;DHT22;51131;52.298;13.686;2023-07-31T02:02:53;21.00;79.30
64705;DHT22;51131;52.298;13.686;2023-07-31T02:05:20;21.00;79.40
64705;DHT22;51131;52.298;13.686;2023-07-31T02:07:46;21.00;79.40
64705;DHT22;51131;52.298;13.686;2023-07-31T02:10:13;21.20;79.60
64705;DHT22;51131;52.298;13.686;2023-07-31T02:12:40;21.00;79.40
64705;DHT22;51131;52.298;13.686;2023-07-31T02:15:06;20.90;79.30
64705;DHT22;51131;52.298;13.686;2023-07-31T02:17:33;21.00;79.40
64705;DHT22;51131;52.298;13.686;2023-07-31T02:20:00;21.10;79.50
64705;DHT22;51131;52.298;13.686;2023-07-31T02:22:26;21.00;79.40
64705;DHT22;51131;52.298;13.686;2023-07-31T02:24:53;20.90;79.20
64705;DHT22;51131;52.298;13.686;2023-07-31T02:27:20;21.00;79.30
64705;DHT22;51131;52.298;13.686;2023-07-31T02:29:50;20.90;79.20
64705;DHT22;51131;52.298;13.686;2023-07-31T02:32:17;21.10;79.40
64705;DHT22;51131;52.298;13.686;2023-07-31T02:34:43;20.50;78.80
64705;DHT22;51131;52.298;13.686;2023-07-31T02:37:10;21.00;79.30
64705;DHT22;51131;52.298;13.686;2023-07-31T02:39:37;21.00;79.40
64705;DHT22;51131;52.298;13.686;2023-07-31T02:42:03;21.10;79.40
64705;DHT22;51131;52.298;13.686;2023-07-31T02:44:30;21.00;79.40
64705;DHT22;51131;52.298;13.686;2023-07-31T02:46:57;21.00;79.40
64705;DHT22;51131;52.298;13.686;2023-07-31T02:49:23;21.50;79.90
64705;DHT22;51131;52.298;13.686;2023-07-31T02:51:50;21.30;79.70
64705;DHT22;51131;52.298;13.686;2023-07-31T02:54:17;20.90;79.30
64705;DHT22;51131;52.298;13.686;2023-07-31T02:56:43;21.00;79.50
64705;DHT22;51131;52.298;13.686;2023-07-31T02:59:10;20.90;79.30
64705;DHT22;51131;52.298;13.686;2023-07-31T03:01:36;21.20;79.60
64705;DHT22;51131;52.298;13.686;2023-07-31T03:04:03;20.90;79.30
64705;DHT22;51131;52.298;13.686;2023-07-31T03:06:30;20.90;79.40
64705;DHT22;51131;52.298;13.686;2023-07-31T03:08:57;20.90;79.40
64705;DHT22;51131;52.298;13.686;2023-07-31T03:11:24;20.90;79.60
64705;DHT22;51131;52.298;13.686;2023-07-31T03:13:50;20.90;79.50
64705;DHT22;51131;52.298;13.686;2023-07-31T03:16:17;20.90;79.50
64705;DHT22;51131;52.298;13.686;2023-07-31T03:18:44;20.90;79.60
64705;DHT22;51131;52.298;13.686;2023-07-31T03:21:10;20.90;79.50
64705;DHT22;51131;52.298;13.686;2023-07-31T03:23:37;20.90;79.60
64705;DHT22;51131;52.298;13.686;2023-07-31T03:26:06;20.90;79.60
64705;DHT22;51131;52.298;13.686;2023-07-31T03:28:33;21.10;79.80
64705;DHT22;51131;52.298;13.686;2023-07-31T03:31:00;20.90;79.60
64705;DHT22;51131;52.298;13.686;2023-07-31T03:33:27;20.90;79.70
64705;DHT22;51131;52.298;13.686;2023-07-31T03:35:53;21.10;79.90
64705;DHT22;51131;52.298;13.686;2023-07-31T03:38:20;20.90;79.70
64705;DHT22;51131;52.298;13.686;2023-07-31T03:40:47;20.90;79.70
64705;DHT22;51131;52.298;13.686;2023-07-31T03:43:14;21.00;79.80
64705;DHT22;51131;52.298;13.686;2023-07-31T03:45:41;20.90;79.70
64705;DHT22;51131;52.298;13.686;2023-07-31T03:48:08;20.90;79.70
64705;DHT22;51131;52.298;13.686;2023-07-31T03:50:35;20.90;79.70
64705;DHT22;51131;52.298;13.686;2023-07-31T03:53:02;20.90;79.70
64705;DHT22;51131;52.298;13.686;2023-07-31T03:55:28;20.90;79.70
64705;DHT22;51131;52.298;13.686;2023-07-31T03:57:55;20.90;79.70
64705;DHT22;51131;52.298;13.686;2023-07-31T04:00:21;21.10;79.80
64705;DHT22;51131;52.298;13.686;2023-07-31T04:02:49;20.90;79.70
64705;DHT22;51131;52.298;13.686;2023-07-31T04:05:16;20.90;79.70
64705;DHT22;51131;52.298;13.686;2023-07-31T04:07:43;20.90;79.70
64705;DHT22;51131;52.298;13.686;2023-07-31T04:10:09;20.90;79.80
64705;DHT22;51131;52.298;13.686;2023-07-31T04:12:39;20.90;79.70
64705;DHT22;51131;52.298;13.686;2023-07-31T04:15:05;21.30;80.10
64705;DHT22;51131;52.298;13.686;2023-07-31T04:17:32;20.90;79.70
64705;DHT22;51131;52.298;13.686;2023-07-31T04:19:59;20.90;79.70
64705;DHT22;51131;52.298;13.686;2023-07-31T04:22:26;20.90;79.70
64705;DHT22;51131;52.298;13.686;2023-07-31T04:24:52;20.90;79.80
64705;DHT22;51131;52.298;13.686;2023-07-31T04:27:19;20.90;79.80
64705;DHT22;51131;52.298;13.686;2023-07-31T04:29:45;20.90;79.80
64705;DHT22;51131;52.298;13.686;2023-07-31T04:32:14;20.90;79.80
64705;DHT22;51131;52.298;13.686;2023-07-31T04:34:43;20.90;79.70
64705;DHT22;51131;52.298;13.686;2023-07-31T04:37:10;21.10;80.00
64705;DHT22;51131;52.298;13.686;2023-07-31T04:39:36;20.90;79.80
64705;DHT22;51131;52.298;13.686;2023-07-31T04:42:03;21.30;80.10
64705;DHT22;51131;52.298;13.686;2023-07-31T04:44:30;20.90;79.70
64705;DHT22;51131;52.298;13.686;2023-07-31T04:46:56;20.90;79.60
64705;DHT22;51131;52.298;13.686;2023-07-31T04:49:23;21.00;79.80
64705;DHT22;51131;52.298;13.686;2023-07-31T04:51:50;21.20;80.00
64705;DHT22;51131;52.298;13.686;2023-07-31T04:54:16;20.90;79.60
64705;DHT22;51131;52.298;13.686;2023-07-31T04:56:43;20.90;79.70
64705;DHT22;51131;52.298;13.686;2023-07-31T04:59:10;20.90;79.70
64705;DHT22;51131;52.298;13.686;2023-07-31T05:01:36;20.90;79.70
64705;DHT22;51131;52.298;13.686;2023-07-31T05:04:03;21.20;80.10
64705;DHT22;51131;52.298;13.686;2023-07-31T05:06:30;21.00;79.90
64705;DHT22;51131;52.298;13.686;2023-07-31T05:08:56;21.00;79.80
64705;DHT22;51131;52.298;13.686;2023-07-31T05:11:23;21.00;79.90
64705;DHT22;51131;52.298;13.686;2023-07-31T05:13:50;20.90;79.80
64705;DHT22;51131;52.298;13.686;2023-07-31T05:16:16;20.90;79.80
64705;DHT22;51131;52.298;13.686;2023-07-31T05:18:43;20.90;79.80
64705;DHT22;51131;52.298;13.686;2023-07-31T05:21:10;20.90;79.90
64705;DHT22;51131;52.298;13.686;2023-07-31T05:23:36;21.10;80.10
64705;DHT22;51131;52.298;13.686;2023-07-31T05:26:04;20.90;79.90
64705;DHT22;51131;52.298;13.686;2023-07-31T05:28:31;20.90;80.00
64705;DHT22;51131;52.298;13.686;2023-07-31T05:31:01;20.80;79.90
64705;DHT22;51131;52.298;13.686;2023-07-31T05:33:28;20.90;80.00
64705;DHT22;51131;52.298;13.686;2023-07-31T05:35:54;20.80;80.00
64705;DHT22;51131;52.298;13.686;2023-07-31T05:38:21;20.90;80.00
64705;DHT22;51131;52.298;13.686;2023-07-31T05:40:48;20.90;80.00
64705;DHT22;51131;52.298;13.686;2023-07-31T05:43:14;20.90;80.10
64705;DHT22;51131;52.298;13.686;2023-07-31T05:45:42;20.60;79.70
64705;DHT22;51131;52.298;13.686;2023-07-31T05:48:09;20.80;80.00
64705;DHT22;51131;52.298;13.686;2023-07-31T05:50:35;20.90;80.00
64705;DHT22;51131;52.298;13.686;2023-07-31T05:53:03;21.10;80.30
64705;DHT22;51131;52.298;13.686;2023-07-31T05:55:30;20.90;80.10
64705;DHT22;51131;52.298;13.686;2023-07-31T05:57:56;20.80;80.00
64705;DHT22;51131;52.298;13.686;2023-07-31T06:00:26;21.20;80.50
64705;DHT22;51131;52.298;13.686;2023-07-31T06:02:54;20.80;80.10
64705;DHT22;51131;52.298;13.686;2023-07-31T06:05:21;21.00;80.20
64705;DHT22;51131;52.298;13.686;2023-07-31T06:07:47;20.80;80.00
64705;DHT22;51131;52.298;13.686;2023-07-31T06:10:14;20.80;80.10
64705;DHT22;51131;52.298;13.686;2023-07-31T06:12:41;20.70;80.00
64705;DHT22;51131;52.298;13.686;2023-07-31T06:15:07;20.80;80.00
64705;DHT22;51131;52.298;13.686;2023-07-31T06:17:34;20.80;80.00
64705;DHT22;51131;52.298;13.686;2023-07-31T06:20:01;20.80;80.00
64705;DHT22;51131;52.298;13.686;2023-07-31T06:22:28;20.80;80.00
64705;DHT22;51131;52.298;13.686;2023-07-31T06:24:54;21.30;80.40
64705;DHT22;51131;52.298;13.686;2023-07-31T06:27:21;20.80;80.10
64705;DHT22;51131;52.298;13.686;2023-07-31T06:29:47;21.00;80.20
64705;DHT22;51131;52.298;13.686;2023-07-31T06:32:14;21.00;80.20
64705;DHT22;51131;52.298;13.686;2023-07-31T06:34:41;20.80;80.00
64705;DHT22;51131;52.298;13.686;2023-07-31T06:37:08;20.80;80.10
64705;DHT22;51131;52.298;13.686;2023-07-31T06:39:34;21.40;80.60
64705;DHT22;51131;52.298;13.686;2023-07-31T06:42:01;20.90;80.10
64705;DHT22;51131;52.298;13.686;2023-07-31T06:44:27;20.80;80.00
64705;DHT22;51131;52.298;13.686;2023-07-31T06:46:54;21.30;80.60
64705;DHT22;51131;52.298;13.686;2023-07-31T06:49:21;20.80;80.20
64705;DHT22;51131;52.298;13.686;2023-07-31T06:51:47;20.90;80.30
64705;DHT22;51131;52.298;13.686;2023-07-31T06:54:14;20.80;80.20
64705;DHT22;51131;52.298;13.686;2023-07-31T06:56:41;20.80;80.20
64705;DHT22;51131;52.298;13.686;2023-07-31T06:59:08;21.40;81.40
64705;DHT22;51131;52.298;13.686;2023-07-31T07:01:34;20.80;80.20
64705;DHT22;51131;52.298;13.686;2023-07-31T07:04:01;20.70;80.10
64705;DHT22;51131;52.298;13.686;2023-07-31T07:06:28;20.90;80.30
64705;DHT22;51131;52.298;13.686;2023-07-31T07:08:54;20.80;80.20
64705;DHT22;51131;52.298;13.686;2023-07-31T07:11:21;20.80;80.20
64705;DHT22;51131;52.298;13.686;2023-07-31T07:13:48;20.80;80.20
64705;DHT22;51131;52.298;13.686;2023-07-31T07:16:14;20.80;80.20
64705;DHT22;51131;52.298;13.686;2023-07-31T07:18:41;20.80;80.20
64705;DHT22;51131;52.298;13.686;2023-07-31T07:21:28;20.80;80.30
64705;DHT22;51131;52.298;13.686;2023-07-31T07:23:54;20.80;80.30
64705;DHT22;51131;52.298;13.686;2023-07-31T07:26:21;20.80;80.30
64705;DHT22;51131;52.298;13.686;2023-07-31T07:28:48;20.80;80.20
64705;DHT22;51131;52.298;13.686;2023-07-31T07:31:14;20.80;80.30
64705;DHT22;51131;52.298;13.686;2023-07-31T07:33:41;20.80;80.30
64705;DHT22;51131;52.298;13.686;2023-07-31T07:36:08;20.80;80.40
64705;DHT22;51131;52.298;13.686;2023-07-31T07:38:36;20.80;80.50
64705;DHT22;51131;52.298;13.686;2023-07-31T07:41:03;20.80;80.50
64705;DHT22;51131;52.298;13.686;2023-07-31T07:43:30;20.80;81.20
64705;DHT22;51131;52.298;13.686;2023-07-31T07:45:57;20.80;80.50
64705;DHT22;51131;52.298;13.686;2023-07-31T07:48:24;20.80;80.50
64705;DHT22;51131;52.298;13.686;2023-07-31T07:50:51;20.80;80.50
64705;DHT22;51131;52.298;13.686;2023-07-31T07:53:18;20.70;80.30
64705;DHT22;51131;52.298;13.686;2023-07-31T07:55:45;20.70;80.40
64705;DHT22;51131;52.298;13.686;2023-07-31T07:58:11;20.80;80.60
64705;DHT22;51131;52.298;13.686;2023-07-31T08:00:38;20.80;80.50
64705;DHT22;51131;52.298;13.686;2023-07-31T08:03:05;20.80;80.50
64705;DHT22;51131;52.298;13.686;2023-07-31T08:05:32;20.80;80.60
64705;DHT22;51131;52.298;13.686;2023-07-31T08:08:00;21.00;80.80
64705;DHT22;51131;52.298;13.686;2023-07-31T08:10:27;20.80;80.60
64705;DHT22;51131;52.298;13.686;2023-07-31T08:12:54;20.80;80.60
64705;DHT22;51131;52.298;13.686;2023-07-31T08:15:21;20.70;80.50
64705;DHT22;51131;52.298;13.686;2023-07-31T08:17:47;20.70;80.60
64705;DHT22;51131;52.298;13.686;2023-07-31T08:20:14;20.70;80.70
64705;DHT22;51131;52.298;13.686;2023-07-31T08:22:41;20.90;80.80
64705;DHT22;51131;52.298;13.686;2023-07-31T08:25:08;20.80;80.70
64705;DHT22;51131;52.298;13.686;2023-07-31T08:27:34;20.70;80.70
64705;DHT22;51131;52.298;13.686;2023-07-31T08:30:01;20.70;80.70
64705;DHT22;51131;52.298;13.686;2023-07-31T08:32:28;20.70;80.80
64705;DHT22;51131;52.298;13.686;2023-07-31T08:34:54;20.80;80.80
64705;DHT22;51131;52.298;13.686;2023-07-31T08:37:21;20.70;80.70
64705;DHT22;51131;52.298;13.686;2023-07-31T08:39:48;20.70;80.70
64705;DHT22;51131;52.298;13.686;2023-07-31T08:42:14;20.70;80.70
64705;DHT22;51131;52.298;13.686;2023-07-31T08:44:41;20.90;81.00
64705;DHT22;51131;52.298;13.686;2023-07-31T08:47:08;20.70;80.90
64705;DHT22;51131;52.298;13.686;2023-07-31T08:49:35;20.70;80.90
64705;DHT22;51131;52.298;13.686;2023-07-31T08:52:03;21.10;81.20
64705;DHT22;51131;52.298;13.686;2023-07-31T08:54:30;20.70;81.00
64705;DHT22;51131;52.298;13.686;2023-07-31T08:56:59;20.80;81.10
64705;DHT22;51131;52.298;13.686;2023-07-31T08:59:29;20.70;81.00
64705;DHT22;51131;52.298;13.686;2023-07-31T09:01:57;20.70;81.20
64705;DHT22;51131;52.298;13.686;2023-07-31T09:04:27;21.00;81.50
64705;DHT22;51131;52.298;13.686;2023-07-31T09:06:56;20.70;81.20
64705;DHT22;51131;52.298;13.686;2023-07-31T09:09:23;20.60;81.10
64705;DHT22;51131;52.298;13.686;2023-07-31T09:11:50;20.70;81.30
64705;DHT22;51131;52.298;13.686;2023-07-31T09:14:16;20.70;81.50
64705;DHT22;51131;52.298;13.686;2023-07-31T09:19:32;20.70;81.30
64705;DHT22;51131;52.298;13.686;2023-07-31T09:22:00;20.70;81.40
64705;DHT22;51131;52.298;13.686;2023-07-31T09:24:28;21.10;81.80
64705;DHT22;51131;52.298;13.686;2023-07-31T09:26:55;21.20;81.80
64705;DHT22;51131;52.298;13.686;2023-07-31T09:29:22;21.00;81.70
64705;DHT22;51131;52.298;13.686;2023-07-31T09:31:49;20.70;81.40
64705;DHT22;51131;52.298;13.686;2023-07-31T09:34:16;20.90;81.60
64705;DHT22;51131;52.298;13.686;2023-07-31T09:36:44;20.70;81.30
64705;DHT22;51131;52.298;13.686;2023-07-31T09:39:11;20.90;81.80
64705;DHT22;51131;52.298;13.686;2023-07-31T09:41:39;20.70;81.70
64705;DHT22;51131;52.298;13.686;2023-07-31T09:44:06;20.70;81.70
64705;DHT22;51131;52.298;13.686;2023-07-31T09:46:36;20.70;81.80
64705;DHT22;51131;52.298;13.686;2023-07-31T09:49:06;20.70;81.80
64705;DHT22;51131;52.298;13.686;2023-07-31T09:51:32;20.70;81.70
64705;DHT22;51131;52.298;13.686;2023-07-31T09:54:11;20.70;81.50
64705;DHT22;51131;52.298;13.686;2023-07-31T09:56:41;20.70;81.60
64705;DHT22;51131;52.298;13.686;2023-07-31T09:59:08;20.80;81.70
64705;DHT22;51131;52.298;13.686;2023-07-31T10:01:37;20.70;81.80
64705;DHT22;51131;52.298;13.686;2023-07-31T10:04:04;20.70;81.80
64705;DHT22;51131;52.298;13.686;2023-07-31T10:06:32;20.70;81.80
64705;DHT22;51131;52.298;13.686;2023-07-31T10:09:00;21.10;82.20
64705;DHT22;51131;52.298;13.686;2023-07-31T10:11:26;21.20;82.30
64705;DHT22;51131;52.298;13.686;2023-07-31T10:13:53;21.10;82.40
64705;DHT22;51131;52.298;13.686;2023-07-31T10:16:21;20.70;81.70
64705;DHT22;51131;52.298;13.686;2023-07-31T10:18:48;20.70;81.70
64705;DHT22;51131;52.298;13.686;2023-07-31T10:21:16;21.00;82.10
64705;DHT22;51131;52.298;13.686;2023-07-31T10:23:43;20.70;81.80
64705;DHT22;51131;52.298;13.686;2023-07-31T10:26:10;20.80;81.90
64705;DHT22;51131;52.298;13.686;2023-07-31T10:28:37;20.70;81.80
64705;DHT22;51131;52.298;13.686;2023-07-31T10:31:05;20.70;82.20
64705;DHT22;51131;52.298;13.686;2023-07-31T10:33:32;20.70;82.80
64705;DHT22;51131;52.298;13.686;2023-07-31T10:36:16;20.70;82.00
64705;DHT22;51131;52.298;13.686;2023-07-31T10:38:44;20.70;82.20
64705;DHT22;51131;52.298;13.686;2023-07-31T10:41:10;20.70;82.00
64705;DHT22;51131;52.298;13.686;2023-07-31T10:43:37;20.70;82.20
64705;DHT22;51131;52.298;13.686;2023-07-31T10:46:06;20.70;82.40
64705;DHT22;51131;52.298;13.686;2023-07-31T10:48:33;21.10;82.70
64705;DHT22;51131;52.298;13.686;2023-07-31T10:51:00;20.70;82.30
64705;DHT22;51131;52.298;13.686;2023-07-31T10:53:29;20.70;82.40
64705;DHT22;51131;52.298;13.686;2023-07-31T10:56:02;21.00;82.70
64705;DHT22;51131;52.298;13.686;2023-07-31T10:58:30;20.70;82.60
64705;DHT22;51131;52.298;13.686;2023-07-31T11:01:02;20.80;82.70
64705;DHT22;51131;52.298;13.686;2023-07-31T11:03:46;20.70;82.60
64705;DHT22;51131;52.298;13.686;2023-07-31T11:06:13;20.70;82.50
64705;DHT22;51131;52.298;13.686;2023-07-31T11:08:47;20.60;83.60
64705;DHT22;51131;52.298;13.686;2023-07-31T11:11:15;20.70;83.50
64705;DHT22;51131;52.298;13.686;2023-07-31T11:13:46;20.70;83.00
64705;DHT22;51131;52.298;13.686;2023-07-31T11:16:16;20.70;83.00
64705;DHT22;51131;52.298;13.686;2023-07-31T11:18:44;20.70;82.90
64705;DHT22;51131;52.298;13.686;2023-07-31T11:21:21;20.70;83.30
64705;DHT22;51131;52.298;13.686;2023-07-31T11:23:48;20.70;83.50
64705;DHT22;51131;52.298;13.686;2023-07-31T11:26:16;20.70;83.30
64705;DHT22;51131;52.298;13.686;2023-07-31T11:28:43;20.60;83.30
64705;DHT22;51131;52.298;13.686;2023-07-31T11:31:09;20.70;83.20
64705;DHT22;51131;52.298;13.686;2023-07-31T11:33:37;21.00;83.30
64705;DHT22;51131;52.298;13.686;2023-07-31T11:36:04;20.70;83.10
64705;DHT22;51131;52.298;13.686;2023-07-31T11:38:31;20.70;83.30
64705;DHT22;51131;52.298;13.686;2023-07-31T11:41:04;20.90;83.40
64705;DHT22;51131;52.298;13.686;2023-07-31T11:43:31;20.60;82.80
64705;DHT22;51131;52.298;13.686;2023-07-31T11:46:00;21.00;83.10
64705;DHT22;51131;52.298;13.686;2023-07-31T11:48:34;20.70;83.10
64705;DHT22;51131;52.298;13.686;2023-07-31T11:51:03;20.70;82.60
64705;DHT22;51131;52.298;13.686;2023-07-31T11:53:31;21.00;82.90
64705;DHT22;51131;52.298;13.686;2023-07-31T11:55:59;20.70;82.80
64705;DHT22;51131;52.298;13.686;2023-07-31T11:58:26;20.70;83.00
64705;DHT22;51131;52.298;13.686;2023-07-31T12:00:54;21.30;83.40
64705;DHT22;51131;52.298;13.686;2023-07-31T12:03:21;20.70;82.70
64705;DHT22;51131;52.298;13.686;2023-07-31T12:05:48;20.70;82.70
64705;DHT22;51131;52.298;13.686;2023-07-31T12:08:15;20.60;82.70
64705;DHT22;51131;52.298;13.686;2023-07-31T12:10:42;20.70;82.80
64705;DHT22;51131;52.298;13.686;2023-07-31T12:13:10;20.70;82.60
64705;DHT22;51131;52.298;13.686;2023-07-31T12:15:43;21.10;82.90
64705;DHT22;51131;52.298;13.686;2023-07-31T12:18:11;20.60;82.50
64705;DHT22;51131;52.298;13.686;2023-07-31T12:20:42;20.70;82.60
64705;DHT22;51131;52.298;13.686;2023-07-31T12:23:13;20.70;82.80
64705;DHT22;51131;52.298;13.686;2023-07-31T12:25:40;20.70;82.70
64705;DHT22;51131;52.298;13.686;2023-07-31T12:28:07;20.80;82.70
64705;DHT22;51131;52.298;13.686;2023-07-31T12:30:38;20.70;82.50
64705;DHT22;51131;52.298;13.686;2023-07-31T12:33:06;20.70;82.60
64705;DHT22;51131;52.298;13.686;2023-07-31T12:35:34;20.80;82.90
64705;DHT22;51131;52.298;13.686;2023-07-31T12:38:01;20.70;82.70
64705;DHT22;51131;52.298;13.686;2023-07-31T12:40:28;20.80;81.90
64705;DHT22;51131;52.298;13.686;2023-07-31T12:43:01;21.70;82.70
64705;DHT22;51131;52.298;13.686;2023-07-31T12:45:30;20.90;81.80
64705;DHT22;51131;52.298;13.686;2023-07-31T12:48:00;21.20;81.90
64705;DHT22;51131;52.298;13.686;2023-07-31T12:50:27;21.10;81.40
64705;DHT22;51131;52.298;13.686;2023-07-31T12:52:54;21.10;81.00
64705;DHT22;51131;52.298;13.686;2023-07-31T12:55:21;21.10;80.90
64705;DHT22;51131;52.298;13.686;2023-07-31T12:57:49;21.10;80.70
64705;DHT22;51131;52.298;13.686;2023-07-31T13:00:16;21.90;81.20
64705;DHT22;51131;52.298;13.686;2023-07-31T13:02:43;21.30;80.30
64705;DHT22;51131;52.298;13.686;2023-07-31T13:05:10;21.80;80.60
64705;DHT22;51131;52.298;13.686;2023-07-31T13:07:36;21.20;80.20
64705;DHT22;51131;52.298;13.686;2023-07-31T13:10:03;21.20;80.10
64705;DHT22;51131;52.298;13.686;2023-07-31T13:12:30;21.20;80.20
64705;DHT22;51131;52.298;13.686;2023-07-31T13:14:57;21.20;80.00
64705;DHT22;51131;52.298;13.686;2023-07-31T13:17:24;21.50;80.20
64705;DHT22;51131;52.298;13.686;2023-07-31T13:19:51;21.20;79.90
64705;DHT22;51131;52.298;13.686;2023-07-31T13:22:17;21.20;80.30
64705;DHT22;51131;52.298;13.686;2023-07-31T13:24:44;21.40;80.30
64705;DHT22;51131;52.298;13.686;2023-07-31T13:27:11;21.20;80.00
64705;DHT22;51131;52.298;13.686;2023-07-31T13:29:38;21.20;80.30
64705;DHT22;51131;52.298;13.686;2023-07-31T13:32:04;21.80;80.90
64705;DHT22;51131;52.298;13.686;2023-07-31T13:34:31;21.20;80.20
64705;DHT22;51131;52.298;13.686;2023-07-31T13:36:58;21.60;80.60
64705;DHT22;51131;52.298;13.686;2023-07-31T13:39:24;21.20;80.30
64705;DHT22;51131;52.298;13.686;2023-07-31T13:41:51;21.20;80.30
64705;DHT22;51131;52.298;13.686;2023-07-31T13:44:18;21.20;80.30
64705;DHT22;51131;52.298;13.686;2023-07-31T13:46:44;21.70;81.50
64705;DHT22;51131;52.298;13.686;2023-07-31T13:49:11;21.50;80.60
64705;DHT22;51131;52.298;13.686;2023-07-31T13:51:38;21.90;81.10
64705;DHT22;51131;52.298;13.686;2023-07-31T13:54:05;21.30;80.60
64705;DHT22;51131;52.298;13.686;2023-07-31T13:56:35;21.20;80.50
64705;DHT22;51131;52.298;13.686;2023-07-31T13:59:02;21.20;80.60
64705;DHT22;51131;52.298;13.686;2023-07-31T14:01:28;21.50;80.80
64705;DHT22;51131;52.298;13.686;2023-07-31T14:03:55;21.60;80.90
64705;DHT22;51131;52.298;13.686;2023-07-31T14:06:22;21.20;80.70
64705;DHT22;51131;52.298;13.686;2023-07-31T14:08:49;21.10;80.50
64705;DHT22;51131;52.298;13.686;2023-07-31T14:11:15;21.10;80.60
64705;DHT22;51131;52.298;13.686;2023-07-31T14:13:42;21.20;80.70
64705;DHT22;51131;52.298;13.686;2023-07-31T14:16:09;21.80;81.30
64705;DHT22;51131;52.298;13.686;2023-07-31T14:18:36;21.10;80.60
64705;DHT22;51131;52.298;13.686;2023-07-31T14:21:03;21.10;80.60
64705;DHT22;51131;52.298;13.686;2023-07-31T14:23:29;21.10;80.70
64705;DHT22;51131;52.298;13.686;2023-07-31T14:25:56;21.10;80.70
64705;DHT22;51131;52.298;13.686;2023-07-31T14:28:23;21.10;80.80
64705;DHT22;51131;52.298;13.686;2023-07-31T14:30:49;21.10;80.90
64705;DHT22;51131;52.298;13.686;2023-07-31T14:33:16;21.20;80.90
64705;DHT22;51131;52.298;13.686;2023-07-31T14:35:43;21.10;80.60
64705;DHT22;51131;52.298;13.686;2023-07-31T14:38:10;21.10;80.60
64705;DHT22;51131;52.298;13.686;2023-07-31T14:40:36;21.10;80.70
64705;DHT22;51131;52.298;13.686;2023-07-31T14:43:04;21.20;80.90
64705;DHT22;51131;52.298;13.686;2023-07-31T14:45:31;21.10;80.90
64705;DHT22;51131;52.298;13.686;2023-07-31T14:47:58;21.30;81.10
64705;DHT22;51131;52.298;13.686;2023-07-31T14:50:25;21.90;81.70
64705;DHT22;51131;52.298;13.686;2023-07-31T14:52:52;21.10;81.30
64705;DHT22;51131;52.298;13.686;2023-07-31T14:55:19;21.10;81.20
64705;DHT22;51131;52.298;13.686;2023-07-31T14:57:45;21.90;81.90
64705;DHT22;51131;52.298;13.686;2023-07-31T15:00:12;21.10;81.10
64705;DHT22;51131;52.298;13.686;2023-07-31T15:02:39;21.10;80.90
64705;DHT22;51131;52.298;13.686;2023-07-31T15:05:06;21.10;81.00
64705;DHT22;51131;52.298;13.686;2023-07-31T15:07:33;21.10;81.00
64705;DHT22;51131;52.298;13.686;2023-07-31T15:10:03;21.50;81.30
64705;DHT22;51131;52.298;13.686;2023-07-31T15:12:30;21.10;81.70
64705;DHT22;51131;52.298;13.686;2023-07-31T15:14:57;21.60;81.60
64705;DHT22;51131;52.298;13.686;2023-07-31T15:17:23;21.30;81.20
64705;DHT22;51131;52.298;13.686;2023-07-31T15:19:50;21.10;81.10
64705;DHT22;51131;52.298;13.686;2023-07-31T15:22:17;21.10;81.00
64705;DHT22;51131;52.298;13.686;2023-07-31T15:24:43;21.10;81.10